Flight Track Log - Related Links

Times and Time Zones

All times are in EDT time to prevent confusion due to time zone crossing. See the RPA3436 flight status page for this flight to view local times or setup timezone preferences in your user account.

Time Position Orientation Groundspeed Altitude Reporting Facility
EDT Latitude Longitude Course Direction KTS MPH feet Rate Location/Type
Wed 10:12:35 AM 38.7667 -77.0000 159° South 241 277 4,100  Level Potomac TRACON
Wed 10:13:00 AM 39.0976 -76.8465 61° Northeast  Level Estimated
Wed 10:13:35 AM 38.7333 -76.9167 117° Southeast 304 350 6,500  Level Potomac TRACON
Wed 10:14:00 AM 39.1795 -76.7825 90° East  Level Estimated
Wed 10:15:00 AM 39.2613 -76.7184 83° East  Level Estimated
Wed 10:15:25 AM 38.8094 -76.7772 55° Northeast 313 360 11,900  Level Washington Center
Wed 10:16:00 AM 39.3430 -76.6541 90° East  Level Estimated
Wed 10:21:06 AM 39.1570 -76.1790 55° Northeast 100 115 23,100  Level FlightAware ADS-B
Wed 10:22:01 AM 39.1750 -76.0210 82° East 465 535 24,500 1,600 Climbing FlightAware ADS-B
Wed 10:22:36 AM 39.1880 -75.9250 80° East 466 536 25,500 1,477 Climbing FlightAware ADS-B
Wed 10:23:06 AM 39.2150 -75.8560 63° Northeast 456 525 26,100 1,300 Climbing FlightAware ADS-B
Wed 10:23:36 AM 39.2550 -75.7990 48° Northeast 441 507 26,800 2,240 Climbing FlightAware ADS-B
Wed 10:24:21 AM 39.3220 -75.7120 45° Northeast 415 478 28,900 1,467 Climbing FlightAware ADS-B
Wed 10:25:06 AM 39.3850 -75.6330 44° Northeast 418 481 29,000 67 Climbing FlightAware ADS-B
Wed 10:25:51 AM 39.4470 -75.5500 46° Northeast 426 490 29,000  Level FlightAware ADS-B
Wed 10:26:31 AM 39.5010 -75.4780 46° Northeast 420 483 29,000  Level FlightAware ADS-B
Wed 10:27:06 AM 39.5480 -75.4170 45° Northeast 413 475 29,000  Level FlightAware ADS-B
Wed 10:27:41 AM 39.5950 -75.3570 45° Northeast 418 481 29,000  Level FlightAware ADS-B
Wed 10:28:31 AM 39.6640 -75.2660 45° Northeast 420 483 29,000  Level FlightAware ADS-B
Wed 10:29:06 AM 39.7110 -75.2000 47° Northeast 402 463 29,000  Level FlightAware ADS-B
Wed 10:30:01 AM 39.7670 -75.1130 50° Northeast 402 463 29,000  Level FlightAware ADS-B
Wed 10:30:26 AM 39.7920 -75.0740 50° Northeast 402 463 29,000  Level FlightAware ADS-B
Wed 10:31:07 AM 39.8620 -75.0120 34° Northeast 408 470 29,000  Level FlightAware ADS-B
Wed 10:32:00 AM 39.9340 -74.9250 43° Northeast 411 473 29,000  Level FlightAware ADS-B
Wed 10:32:18 AM 39.9730 -74.8750 44° Northeast 411 473 29,000  Level FlightAware ADS-B
Wed 10:32:54 AM 40.0220 -74.8140 44° Northeast 412 474 29,000  Level FlightAware ADS-B
Wed 10:33:32 AM 40.0670 -74.7600 43° Northeast 412 474 29,000  Level FlightAware ADS-B
Wed 10:34:20 AM 40.1240 -74.6900 43° Northeast 412 474 29,000  Level FlightAware ADS-B
Wed 10:35:06 AM 40.2190 -74.5850 40° Northeast 404 465 29,000  Level FlightAware ADS-B
Wed 10:35:51 AM 40.2740 -74.5070 47° Northeast 397 457 29,000  Level FlightAware ADS-B
Wed 10:36:31 AM 40.3280 -74.4380 44° Northeast 410 472 29,000  Level FlightAware ADS-B
Wed 10:37:11 AM 40.3860 -74.3670 43° Northeast 406 467 29,000  Level FlightAware ADS-B
Wed 10:37:50 AM 40.4300 -74.3090 45° Northeast 406 467 29,000  Level FlightAware ADS-B
Wed 10:38:31 AM 40.4920 -74.2370 41° Northeast 406 467 29,000  Level FlightAware ADS-B
Wed 10:39:01 AM 40.5380 -74.1780 44° Northeast 407 468 29,000 -171 Level FlightAware ADS-B
Wed 10:39:41 AM 40.5920 -74.1100 44° Northeast 411 473 28,800 -1,275 Descending FlightAware ADS-B
Wed 10:40:21 AM 40.6490 -74.0380 44° Northeast 438 504 27,300 -2,400 Descending FlightAware ADS-B
Wed 10:41:06 AM 40.7150 -73.9550 44° Northeast 422 486 25,400 -2,259 Descending FlightAware ADS-B
Wed 10:41:46 AM 40.7690 -73.8860 44° Northeast 415 478 24,100 -1,105 Descending FlightAware ADS-B
Wed 10:42:22 AM 40.8200 -73.8240 43° Northeast 418 481 24,000 -75 Descending FlightAware ADS-B
Wed 10:43:06 AM 40.8830 -73.7480 42° Northeast 413 475 24,000  Level FlightAware ADS-B
Wed 10:43:41 AM 40.9300 -73.6900 43° Northeast 411 473 24,000 -218 Level FlightAware ADS-B
Wed 10:44:01 AM 40.9600 -73.6540 42° Northeast 415 478 23,800 -169 Descending FlightAware ADS-B
Wed 10:44:52 AM 41.0220 -73.5800 42° Northeast 415 478 23,800  Level FlightAware ADS-B
Wed 10:45:28 AM 41.0660 -73.5280 42° Northeast 415 478 23,800 -1,304 Level FlightAware ADS-B
Wed 10:46:01 AM 41.1250 -73.4520 44° Northeast 415 478 22,300 -2,381 Descending FlightAware ADS-B
Wed 10:46:31 AM 41.1660 -73.4020 43° Northeast 406 467 21,300 -759 Descending FlightAware ADS-B
Wed 10:47:20 AM 41.2240 -73.3310 43° Northeast 406 467 21,300  Level FlightAware ADS-B
Wed 10:48:08 AM 41.2800 -73.2620 43° Northeast 406 467 21,300 -1,339 Level FlightAware ADS-B
Wed 10:49:21 AM 41.4330 -73.3820 330° Northwest 345 397 18,600 -1,488 Descending FlightAware ADS-B
Wed 10:50:13 AM 41.5100 -73.3940 353° North 353 406 18,200 -273 Descending FlightAware ADS-B
Wed 10:50:49 AM 41.5600 -73.4010 354° North 353 406 18,200  Level FlightAware ADS-B
Wed 10:51:25 AM 41.6090 -73.4080 354° North 353 406 18,200  Level FlightAware ADS-B
Wed 10:52:01 AM 41.6590 -73.4150 354° North 353 406 18,200  Level FlightAware ADS-B
Wed 10:53:03 AM 41.7450 -73.4270 354° North 353 406 18,200 -2,593 Level FlightAware ADS-B
Wed 10:53:59 AM 41.8978 -73.4811 354° North 339 390 13,100 -4,048 Descending Boston Center
Wed 10:54:26 AM 41.9353 -73.4878 352° North 333 383 12,600 -1,176 Descending Boston Center
Wed 10:54:50 AM 41.9703 -73.4964 350° North 325 374 12,100 -1,636 Descending Boston Center
Wed 10:54:59 AM 41.9931 -73.5003 353° North 325 374 11,700 -984 Descending Boston Center
Wed 10:55:51 AM 42.0633 -73.5156 351° North 316 364 11,100 -563 Descending Boston Center
Wed 10:56:03 AM 42.0658 -73.5167 342° North 317 365 11,100  Level Boston Center
Wed 10:56:49 AM 42.1483 -73.5436 346° North 314 361 11,100 -98 Level Boston Center
Wed 10:57:04 AM 42.1650 -73.5489 347° North 321 369 11,000 -381 Descending Boston Center
Wed 10:57:52 AM 42.2292 -73.5819 339° North 303 349 10,700 -492 Descending Boston Center
Wed 10:58:05 AM 42.2453 -73.5917 336° Northwest 310 357 10,500 -1,475 Descending Boston Center
Wed 10:58:53 AM 42.2975 -73.6192 339° North 266 306 9,200 -1,800 Descending Boston Center
Wed 10:59:05 AM 42.3153 -73.6267 343° North 293 337 8,700 -2,137 Descending Boston Center
Wed 11:00:06 AM 42.3831 -73.6589 341° North 261 300 6,600 -1,872 Descending Boston Center
Wed 11:00:54 AM 42.4333 -73.6875 337° Northwest 259 298 5,300 -1,600 Descending Boston Center
Wed 11:01:06 AM 42.4486 -73.6933 344° North 253 291 5,000 -1,974 Descending Boston Center
Wed 11:02:10 AM 42.5167 -73.7283 339° North 244 281 2,800 -1,626 Descending Boston Center
Wed 11:02:53 AM 42.5647 -73.7547 338° Northwest 242 278 2,100 -724 Descending Boston Center
Wed 11:03:08 AM 42.5792 -73.7603 344° North 242 278 2,100 -95 Level Boston Center
Wed 11:03:56 AM 42.6158 -73.7806 338° Northwest 195 224 2,000  Descending Boston Center
Wed 11:04:11 AM 42.6292 -73.7861 343° North 201 231 2,100  Climbing Boston Center
Wed 11:04:55 AM 42.6592 -73.8011 340° North 152 175 2,000 -194 Descending Boston Center
Wed 11:05:13 AM 42.6722 -73.8017 358° North 165 190 1,900 -900 Descending Boston Center
Wed 11:05:55 AM 42.6978 -73.8025 359° North 126 145 1,100 -885 Descending Boston Center
Wed 11:06:14 AM 42.7108 -73.8036 356° North 135 155 1,000 -590 Descending Boston Center
Wed 11:06:56 AM 42.7336 -73.8058 356° North 124 143 500 -700 Descending Boston Center
Wed 11:07:14 AM 42.7447 -73.8067 357° North 127 146 300 -152 Descending Boston Center
Wed 11:08:15 AM 42.7719 -73.8061 North 122 140 300  Level Boston Center

Login

Don't have an account? Register now (free) for customized features, flight alerts, and more!